KCTZ/CTZ METAR and TAF weather

Enter ICAO airport designator
Station Type Date Time Source
KCTZ METAR 2020/07/15 00:55 UTC NOAA

KCTZ 150055Z AUTO 00000KT 10SM CLR 28/22 A3001 RMK AO2 T02780220


Station Type Date Time Source
KCTZ Decoded METAR 2020/07/15 00:55 UTC NOAA

Clinton, Sampson County Airport, NC, United States (KCTZ) 34-58-32N 078-21-53W
Jul 14, 2020 - 08:55 PM EDT / 2020.07.15 0055 UTC
Wind: Calm:0
Visibility: 10 mile(s):0
Sky conditions: clear
Temperature: 82.0 F (27.8 C)
Dew Point: 71.6 F (22.0 C)
Relative Humidity: 70%
Pressure (altimeter): 30.01 in. Hg (1016 hPa)
ob: KCTZ 150055Z AUTO 00000KT 10SM CLR 28/22 A3001 RMK AO2 T02780220
cycle: 1

Station Type Date Time Source
KCTZ TAF UTC NOAA

Error!

Example: see airport list